Аэропорт: Остафьево. Москва

ICAO: UUMO

METAR:
2018/09/23 11:00
UUMO 231100Z 25004MPS 9999 OVC016 11/09 Q1010 R26/190055 NOSIG RMK QFE742/0990
METAR:
Информация по данной станции не доступна